Wild Boar Gully, Santa Catalina Island Weather observations

Data are for 10 minute period ending at time listed.
 Day   Time   Solar   Ave.   Ave.  Ave.  Vector    Max.   Stn.    Total
  of    of     Rad.   Air    Rel.  Wind   Wind     Wind   Baro.  Precip.
Year   Day            Temp.  Hum.  Speed  Dir.     Gust   Pres.         
2015   (PST)   W/m2    F      %     mph   deg.      mph    mb.     in.  
------------------------------------------------------------------------
  90    3:20    0.0    56   86.5     4     34.2     4.8    999.0   0.00  
  90    3:30    0.0    56   86.4     3     29.5     5.4    999.0   0.00  
  90    3:40    0.0    56   86.2     4     18.5     5.4    999.0   0.00  
  90    3:50    0.0    56   86.3     3      5.8     4.2    999.0   0.00  
  90    4:00    0.0    57   86.3     2     10.5     4.2    999.0   0.00  
  90    4:10    0.0    57   86.2     3    316.0     4.2    999.0   0.00  
  90    4:20    0.0    57   86.1     4    354.6     5.4    999.0   0.00  
  90    4:30    0.0    57   86.2     4    293.3     7.2    999.0   0.00  
  90    4:40    0.0    57   86.1     4    273.6     6.6    999.0   0.00  
  90    4:50    0.0    57   86.0     5    303.5     7.2    999.0   0.00  
  90    5:00    0.0    57   86.0     4    313.4     7.2    999.0   0.00  
  90    5:10    0.0    57   85.9     3    280.3     5.4    999.0   0.00  
  90    5:20    0.0    57   85.8     2     20.1     3.6    999.0   0.00  
  90    5:30    0.0    57   85.6     3    359.3     4.2    999.0   0.00  
  90    5:40    0.0    57   85.6     4     52.9     5.4    999.0   0.00  
  90    5:50    2.0    57   85.6     2     78.9     3.6    999.0   0.00  
  90    6:00    5.0    57   85.4     4     13.2     4.8    999.0   0.00  
  90    6:10    8.0    57   85.4     2     90.0     4.2    999.0   0.00  
  90    6:20   19.0    58   85.3     2     86.5     3.0    999.0   0.00  
  90    6:30   32.0    58   85.2     1    341.1     2.4    999.0   0.00  
  90    6:40   36.0    58   85.0     2    273.9     5.4    999.0   0.00  
  90    6:50   45.0    58   84.8     3    209.4     5.4    999.0   0.00  
  90    7:00   69.0    58   84.6     1     34.4     2.4    999.0   0.00  
  90    7:10  119.0    58   84.1     2    186.1     6.0    999.0   0.00  
  90    7:20  143.0    59   83.5     3    163.9     5.4    999.0   0.00  
  90    7:30   87.0    59   83.0     4    295.8     5.4    999.0   0.00  
  90    7:40  146.0    59   82.7     3    283.3     5.4    999.0   0.00  
  90    7:50  147.0    60   82.2     3    284.6     6.0    999.0   0.00  
  90    8:00  156.0    60   81.6     2    301.3     4.2    999.0   0.00  
  90    8:10  422.0    62   80.2     2    142.5     4.2    999.0   0.00  
  90    8:20  255.0    62   77.3     4    183.9     6.0    999.0   0.00  
  90    8:30  394.0    62   77.4     3    176.6     6.0    999.0   0.00  
  90    8:40  383.0    63   75.6     4    150.8     6.0    999.0   0.00  
  90    8:50  431.0    63   75.6     4    161.7     7.8    999.0   0.00  
  90    9:00  495.0    64   74.0     4    174.0     6.6    999.0   0.00  
  90    9:10  558.0    64   73.7     4    201.4     7.8    999.0   0.00  
  90    9:20  578.0    64   73.6     5    239.1     9.0    999.0   0.00  
  90    9:30  547.0    63   75.0     5    231.4     7.8    999.0   0.00  
  90    9:40  545.0    62   77.0     6    238.2     9.0    999.0   0.00  
  90    9:50  542.0    62   76.8     5    226.2     7.2    999.0   0.00  
  90   10:00  583.0    63   76.5     5    219.0     7.2    999.0   0.00  
  90   10:10  700.0    64   75.1     4    171.7     8.4    999.0   0.00  
  90   10:20  690.0    65   72.6     5    139.6     9.6    999.0   0.00  
  90   10:30  703.0    65   73.6     6    151.1     9.6    999.0   0.00  
  90   10:40  694.0    64   74.1     5    147.2     9.0    999.0   0.00  
  90   10:50  712.0    65   72.8     5    215.9     9.0    999.0   0.00  
  90   11:00  510.0    66   72.0     4    221.7     7.2    999.0   0.00  
  90   11:10  534.0    64   73.9     6    245.6     9.6    999.0   0.00  
  90   11:20  416.0    64   74.3     7    245.5     9.0    999.0   0.00  
  90   11:30  416.0    63   76.2     6    241.1     9.0    999.0   0.00  
  90   11:40  407.0    64   75.3     5    213.2     9.6    999.0   0.00  
  90   11:50  344.0    63   76.1     6    243.2     8.4    999.0   0.00  
  90   12:00  537.0    63   76.1     6    239.8     9.6    999.0   0.00  
  90   12:10  892.0    65   74.4     6    240.7    10.2    999.0   0.00  
  90   12:20  660.0    64   74.0     6    240.0     9.0    999.0   0.00  
  90   12:30  692.0    65   73.1     6    236.4    10.8    999.0   0.00  
  90   12:40  663.0    65   72.8     6    228.6    10.8    999.0   0.00  
  90   12:50  756.0    65   72.1     7    236.4    10.2    999.0   0.00  
  90   13:00  739.0    65   72.9     6    237.4     9.6    999.0   0.00  
  90   13:10  730.0    65   73.0     6    235.1     9.0    999.0   0.00  
  90   13:20  717.0    64   73.0     6    237.8     9.6    999.0   0.00  
  90   13:30  706.0    65   72.5     6    233.6    10.2    999.0   0.00  
  90   13:40  690.0    65   72.1     8    226.8    11.9    999.0   0.00  
  90   13:50  677.0    66   71.7     8    224.7    11.3    999.0   0.00  
  90   14:00  654.0    66   72.2     8    228.9    12.5    999.0   0.00  
  90   14:10  613.0    66   72.6     9    233.6    13.7    999.0   0.00  
  90   14:20  498.0    65   73.1     9    230.5    15.5    999.0   0.00  
  90   14:30  604.0    66   72.3     8    228.0    11.9    999.0   0.00  
  90   14:40  578.0    65   72.7     7    224.7    10.2    999.0   0.00  
  90   14:50  553.0    66   72.2     7    222.5     9.6    999.0   0.00  
  90   15:00  529.0    66   71.7     6    227.2     9.6    999.0   0.00  
  90   15:10  504.0    66   72.5    10    231.9    14.3    999.0   0.00  
  90   15:20  480.0    66   71.3     9    232.3    13.1    999.0   0.00  
  90   15:30  446.0    66   71.6    10    231.9    14.9    999.0   0.00  
  90   15:40  427.0    66   72.1     9    239.8    13.7    999.0   0.00  
  90   15:50  400.0    66   72.4    11    245.7    15.5    999.0   0.00  
  90   16:00  372.0    66   72.5    10    254.9    15.5    999.0   0.00  
  90   16:10  346.0    67   70.4     9    263.4    15.5    999.0   0.00  
  90   16:20  319.0    68   70.0     7    236.3    11.9    999.0   0.00  
  90   16:30  290.0    67   70.9     8    245.5    11.9    999.0   0.00  
  90   16:40  260.0    66   71.8     9    254.1    15.5    999.0   0.00  
  90   16:50  230.0    65   73.0    13    268.4    17.3    999.0   0.00  
  90   17:00  198.0    65   73.1    11    267.1    14.9    999.0   0.00  
  90   17:10  167.0    65   72.7    10    266.1    14.3    999.0   0.00  
  90   17:20  137.0    66   71.7     7    260.7    14.3    999.0   0.00  
  90   17:30  109.0    65   72.1     9    271.1    12.5    999.0   0.00  
  90   17:40   81.0    66   69.6     7    274.3    10.8    999.0   0.00  
  90   17:50   48.0    66   68.2     8    273.4     9.6    999.0   0.00  
  90   18:00   26.0    64   71.1     8    269.3    11.9    999.0   0.00  
  90   18:10   12.0    64   70.0     8    287.2    13.7    999.0   0.00  
  90   18:20    5.0    63   70.1     9    289.8    13.1    999.0   0.00  
  90   18:30    0.0    63   72.8     9    297.0    15.5    999.0   0.00  
  90   18:40    0.0    62   74.6    10    304.8    14.9    999.0   0.00  
  90   18:50    0.0    62   75.7    10    308.1    15.5    999.0   0.00  
  90   19:00    0.0    62   75.1    10    291.4    14.3    999.0   0.00  
  90   19:10    0.0    62   74.9     9    285.8    12.5    999.0   0.00  
  90   19:20    0.0    62   76.2     8    300.6    11.3    999.0   0.00  
  90   19:30    0.0    62   76.8     8    304.3    11.9    999.0   0.00  
  90   19:40    0.0    62   76.6     5    287.2    11.3    999.0   0.00  
  90   19:50    0.0    62   74.8     3    290.8     7.2    999.0   0.00  
  90   20:00    0.0    62   75.1     2     15.3     4.2    999.0   0.00  
  90   20:10    0.0    62   75.7     1     24.1     2.4    999.0   0.00  
  90   20:20    0.0    61   76.1     2    298.0     4.2    999.0   0.00  
  90   20:30    0.0    61   76.8     1     11.1     2.4    999.0   0.00  
  90   20:40    0.0    61   77.4     2     45.4     4.2    999.0   0.00  
  90   20:50    0.0    60   78.0     4    102.0     4.8    999.0   0.00  
  90   21:00    0.0    60   77.7     4     96.5     4.8    999.0   0.00  
  90   21:10    0.0    60   78.4     5     84.9     7.2    999.0   0.00  
  90   21:20    0.0    60   78.6     7     70.8     8.4    999.0   0.00  
  90   21:30    0.0    60   79.3     8     81.4     9.6    999.0   0.00  
  90   21:40    0.0    60   79.6     7     79.9     9.6    999.0   0.00  
  90   21:50    0.0    60   79.8     5     64.0     7.8    999.0   0.00  
  90   22:00    0.0    60   79.1     6     83.4     7.2    999.0   0.00  
  90   22:10    0.0    60   79.2     6     96.1     8.4    999.0   0.00  
  90   22:20    0.0    60   79.2     8     77.2    10.8    999.0   0.00  
  90   22:30    0.0    60   79.2     8     77.6    10.8    999.0   0.00  
  90   22:40    0.0    60   80.1     8     82.1    10.8    999.0   0.00  
  90   22:50    0.0    60   81.0     7     78.0    10.2    999.0   0.00  
  90   23:00    0.0    60   81.7     5     69.5     7.8    999.0   0.00  
  90   23:10    0.0    60   82.1     6     65.0     7.8    999.0   0.00  
  90   23:20    0.0    59   82.3     4     70.4     7.2    999.0   0.00  
  90   23:30    0.0    59   82.7     3     86.2     4.8    999.0   0.00  
  90   23:40    0.0    58   83.0     3    106.5     4.8    999.0   0.00  
  90   23:50    0.0    58   83.4     4     90.0     6.6    999.0   0.00  
  91    0:00    0.0    58   83.7     5     84.2     6.0    999.0   0.00  
  91    0:10    0.0    58   84.0     6     85.7     7.2    999.0   0.00  
  91    0:20    0.0    59   84.2     5    101.8     6.6    999.0   0.00  
  91    0:30    0.0    59   84.3     4     95.9     5.4    999.0   0.00  
  91    0:40    0.0    58   84.3     3     89.8     4.8    999.0   0.00  
  91    0:50    0.0    58   83.8     2     55.6     3.6    999.0   0.00  
  91    1:00    0.0    57   82.9     2     92.3     3.0    999.0   0.00  
  91    1:10    0.0    58   81.6     2     74.3     3.6    999.0   0.00  
  91    1:20    0.0    59   80.7     2     72.1     3.6    999.0   0.00  
  91    1:30    0.0    59   80.0     2     80.5     3.6    999.0   0.00  
  91    1:40    0.0    58   79.6     2     75.2     3.6    999.0   0.00  
  91    1:50    0.0    58   79.6     2     44.8     3.0    999.0   0.00  
  91    2:00    0.0    58   79.3     2     61.5     2.4    999.0   0.00  
  91    2:10    0.0    58   79.4     2     69.1     3.0    999.0   0.00  
  91    2:20    0.0    58   79.4     2     74.3     4.2    999.0   0.00  
  91    2:30    0.0    58   80.8     3     93.9     4.8    999.0   0.00  
  91    2:40    0.0    58   81.6     4     96.8     5.4    999.0   0.00  
  91    2:50    0.0    58   82.0     4     88.6     4.8    999.0   0.00  
  91    3:00    0.0    57   81.3     4     78.5     6.6    999.0   0.00  
  91    3:10    0.0    58   81.7     7     76.2     9.0    999.0   0.00  

Return to Wild Boar Gully graphs page.


Western Regional Climate Center,wrcc@dri.edu